Time;durP1;ratioP1;P1;durP2;ratioP2;P2;SDS_P1;SDS_P2;PMS_P1;PMS_P2;Temp;Humidity;BMP_temperature;BMP_pressure;BME280_temperature;BME280_humidity;BME280_pressure;Samples;Min_cycle;Max_cycle;Signal;HPM_P1;HPM_P2
2021/11/02 00:00:50;;;;;;;4.43;4.13;;;9.00;99.90;;;;;;5084117;28;20167;-82
2021/11/02 00:03:15;;;;;;;5.23;3.40;;;8.90;99.90;;;;;;5086879;28;20193;-82
2021/11/02 00:05:44;;;;;;;5.90;3.90;;;8.90;99.90;;;;;;5125258;28;20396;-80
2021/11/02 00:08:10;;;;;;;4.40;4.00;;;8.90;99.90;;;;;;5117608;28;20169;-80
2021/11/02 00:10:35;;;;;;;4.13;3.80;;;8.90;99.90;;;;;;5137827;27;20403;-79
2021/11/02 00:13:03;;;;;;;5.70;4.43;;;8.90;99.90;;;;;;5139145;28;20409;-79
2021/11/02 00:15:33;;;;;;;6.00;4.83;;;8.80;99.90;;;;;;5139408;28;20193;-79
2021/11/02 00:18:03;;;;;;;4.30;3.90;;;8.80;99.90;;;;;;5139470;28;20440;-79
2021/11/02 00:20:30;;;;;;;6.70;3.60;;;8.70;99.90;;;;;;5139765;28;20392;-79
2021/11/02 00:22:57;;;;;;;3.50;3.20;;;8.70;99.90;;;;;;5135305;28;20388;-81
2021/11/02 00:25:26;;;;;;;5.87;4.23;;;8.70;99.90;;;;;;5132435;28;20418;-82
2021/11/02 00:27:53;;;;;;;3.40;3.10;;;8.60;99.90;;;;;;5114652;28;20452;-82
2021/11/02 00:30:20;;;;;;;5.27;4.60;;;8.60;99.90;;;;;;5114525;28;20400;-82
2021/11/02 00:32:47;;;;;;;6.27;3.40;;;8.60;99.90;;;;;;5114644;28;20392;-82
2021/11/02 00:35:14;;;;;;;4.60;4.20;;;8.50;99.90;;;;;;5131986;28;20475;-82
2021/11/02 00:37:44;;;;;;;8.03;4.10;;;8.60;99.90;;;;;;5135609;28;20399;-80
2021/11/02 00:40:14;;;;;;;3.90;3.57;;;8.50;99.90;;;;;;5101981;28;20415;-80
2021/11/02 00:42:50;;;;;;;4.63;4.17;;;8.60;99.90;;;;;;5119563;28;20380;-79
2021/11/02 00:45:23;;;;;;;3.60;3.30;;;8.70;99.90;;;;;;5120757;28;20399;-79
2021/11/02 00:47:51;;;;;;;4.10;3.80;;;8.60;99.90;;;;;;5136411;28;20386;-80
2021/11/02 00:50:18;;;;;;;3.77;3.47;;;8.50;99.90;;;;;;5117835;28;20425;-80
2021/11/02 00:52:44;;;;;;;4.73;4.20;;;8.60;99.90;;;;;;5136077;28;20412;-80
2021/11/02 00:55:10;;;;;;;10.40;4.80;;;8.50;99.90;;;;;;5135910;28;20426;-80
2021/11/02 00:57:36;;;;;;;4.43;3.97;;;8.50;99.90;;;;;;5135600;28;20403;-80
2021/11/02 01:00:05;;;;;;;3.50;3.20;;;8.40;99.90;;;;;;5136504;28;20455;-80
2021/11/02 01:02:31;;;;;;;5.87;4.20;;;8.40;99.90;;;;;;5118267;28;20407;-80
2021/11/02 01:04:57;;;;;;;4.50;4.10;;;8.50;99.90;;;;;;5135875;28;20392;-79
2021/11/02 01:07:23;;;;;;;4.43;4.10;;;8.70;99.90;;;;;;5118384;28;20178;-80
2021/11/02 01:09:49;;;;;;;5.30;4.17;;;8.60;99.90;;;;;;5118675;28;20388;-80
2021/11/02 01:12:16;;;;;;;11.30;4.07;;;8.60;99.90;;;;;;5132130;28;20162;-82
2021/11/02 01:14:43;;;;;;;4.80;4.20;;;8.50;99.90;;;;;;5130394;28;20431;-81
2021/11/02 01:17:09;;;;;;;5.73;4.87;;;8.50;99.90;;;;;;5113513;28;20384;-82
2021/11/02 01:19:36;;;;;;;4.93;4.43;;;8.40;99.90;;;;;;5110755;28;20388;-82
2021/11/02 01:22:02;;;;;;;5.20;4.43;;;8.50;99.90;;;;;;5130433;28;20431;-81
2021/11/02 01:24:28;;;;;;;6.67;5.17;;;8.50;99.90;;;;;;5129632;28;20509;-82
2021/11/02 01:26:54;;;;;;;4.63;4.17;;;8.40;99.90;;;;;;5130277;28;20512;-82
2021/11/02 01:29:20;;;;;;;4.13;3.83;;;8.50;99.90;;;;;;5129400;28;20399;-81
2021/11/02 01:31:46;;;;;;;3.90;3.47;;;8.40;99.90;;;;;;5129463;28;20388;-82
2021/11/02 01:34:12;;;;;;;6.73;6.10;;;8.40;99.90;;;;;;5111747;28;20188;-82
2021/11/02 01:36:40;;;;;;;5.00;4.60;;;8.40;99.90;;;;;;5129730;28;20943;-82
2021/11/02 01:39:07;;;;;;;5.47;4.97;;;8.40;99.90;;;;;;5130603;28;20380;-82
2021/11/02 01:41:35;;;;;;;4.73;4.20;;;8.30;99.90;;;;;;5130674;28;20877;-82
2021/11/02 01:44:02;;;;;;;5.47;3.93;;;8.20;99.90;;;;;;5129823;28;20456;-81
2021/11/02 01:46:32;;;;;;;5.03;4.53;;;8.10;99.90;;;;;;5129282;28;20399;-82
2021/11/02 01:49:00;;;;;;;5.97;4.80;;;8.10;99.90;;;;;;5128642;28;20400;-82
2021/11/02 01:51:29;;;;;;;4.33;3.90;;;8.30;99.90;;;;;;5129631;28;20892;-82
2021/11/02 01:53:55;;;;;;;10.10;5.33;;;8.20;99.90;;;;;;5130204;28;20392;-82
2021/11/02 01:56:22;;;;;;;7.70;5.50;;;8.20;99.90;;;;;;5130036;28;20443;-82
2021/11/02 01:58:53;;;;;;;13.67;4.80;;;8.30;99.90;;;;;;5128887;28;20856;-81
2021/11/02 02:01:34;;;;;;;4.10;3.80;;;8.30;99.90;;;;;;5129313;28;20413;-81
2021/11/02 02:04:35;;;;;;;5.80;5.20;;;8.30;99.90;;;;;;5129745;28;20395;-81
2021/11/02 02:07:31;;;;;;;4.90;4.03;;;8.30;99.90;;;;;;5129128;28;20741;-82
2021/11/02 02:10:09;;;;;;;8.63;4.93;;;8.30;99.90;;;;;;5129745;28;20442;-82
2021/11/02 02:13:02;;;;;;;4.53;4.13;;;8.10;99.90;;;;;;5112660;28;20419;-82
2021/11/02 02:15:47;;;;;;;6.87;4.57;;;8.00;99.90;;;;;;5116370;28;20466;-82
2021/11/02 02:18:24;;;;;;;4.10;3.80;;;8.00;99.90;;;;;;5129712;28;20406;-82
2021/11/02 02:21:21;;;;;;;16.13;6.00;;;7.90;99.90;;;;;;5129412;28;20934;-81
2021/11/02 02:24:20;;;;;;;5.30;4.20;;;7.90;99.90;;;;;;5113407;28;20408;-82
2021/11/02 02:27:17;;;;;;;7.30;4.47;;;8.00;99.90;;;;;;5129237;28;20399;-82
2021/11/02 02:29:44;;;;;;;6.20;5.60;;;8.00;99.90;;;;;;5129037;28;20467;-82
2021/11/02 02:32:16;;;;;;;8.73;5.23;;;8.00;99.90;;;;;;5128953;28;20411;-82
2021/11/02 02:34:48;;;;;;;9.70;4.93;;;7.90;99.90;;;;;;5111557;28;20944;-81
2021/11/02 02:37:16;;;;;;;5.90;4.97;;;7.80;99.90;;;;;;5128610;28;20403;-82
2021/11/02 02:39:44;;;;;;;5.17;4.67;;;7.80;99.90;;;;;;5128467;28;20400;-82
2021/11/02 02:42:12;;;;;;;5.33;4.93;;;7.80;99.90;;;;;;5129738;28;20490;-82
2021/11/02 02:44:39;;;;;;;5.73;5.00;;;7.80;99.90;;;;;;5129246;28;20478;-82
2021/11/02 02:47:05;;;;;;;6.60;5.40;;;7.80;99.90;;;;;;5129330;28;20399;-82
2021/11/02 02:49:32;;;;;;;5.77;5.20;;;7.80;99.90;;;;;;5133326;28;20399;-82
2021/11/02 02:52:00;;;;;;;8.47;5.80;;;7.80;99.90;;;;;;5114550;28;20396;-81
2021/11/02 02:54:27;;;;;;;6.97;5.47;;;7.80;99.90;;;;;;5133242;28;20438;-82
2021/11/02 02:56:54;;;;;;;5.80;5.00;;;7.80;99.90;;;;;;5130935;28;20964;-82
2021/11/02 02:59:21;;;;;;;5.87;5.33;;;7.90;99.90;;;;;;5128291;28;20389;-82
2021/11/02 03:01:51;;;;;;;5.10;4.60;;;7.80;99.90;;;;;;5128468;28;20402;-83
2021/11/02 03:04:22;;;;;;;9.37;4.97;;;7.90;99.90;;;;;;5129071;28;20405;-82
2021/11/02 03:06:51;;;;;;;6.80;4.67;;;7.70;99.90;;;;;;5128657;28;20383;-82
2021/11/02 03:09:17;;;;;;;6.33;5.80;;;7.70;99.90;;;;;;5128555;28;20414;-82
2021/11/02 03:11:44;;;;;;;8.20;6.23;;;7.90;99.90;;;;;;5110720;28;20782;-82
2021/11/02 03:14:14;;;;;;;10.17;6.53;;;8.00;99.90;;;;;;5110527;28;20437;-82
2021/11/02 03:16:55;;;;;;;8.60;6.83;;;8.20;99.90;;;;;;5128985;28;20439;-82
2021/11/02 03:19:57;;;;;;;7.83;5.83;;;8.20;99.90;;;;;;5128695;28;20467;-82
2021/11/02 03:49:29;;;;;;;7.90;6.00;;;8.10;99.90;;;;;;5131414;28;20431;-81
2021/11/02 03:52:17;;;;;;;11.40;7.97;;;8.00;99.90;;;;;;5130394;28;20440;-82
2021/11/02 03:54:47;;;;;;;7.57;6.80;;;8.10;99.90;;;;;;5131079;28;20466;-81
2021/11/02 04:00:26;;;;;;;13.30;8.50;;;8.10;99.90;;;;;;5113299;28;20447;-82
2021/11/02 04:24:46;;;;;;;10.67;8.23;;;7.50;99.90;;;;;;5128507;28;20384;-81
2021/11/02 04:27:21;;;;;;;7.93;6.30;;;7.30;99.90;;;;;;5127249;28;20408;-83
2021/11/02 04:35:33;;;;;;;12.83;8.47;;;7.70;99.90;;;;;;5126416;28;20467;-82
2021/11/02 04:46:30;;;;;;;9.70;7.33;;;7.60;99.90;;;;;;5123822;28;20419;-82
2021/11/02 04:58:00;;;;;;;11.47;7.77;;;7.70;99.90;;;;;;5126016;28;20434;-82
2021/11/02 05:07:50;;;;;;;8.00;6.43;;;7.60;99.90;;;;;;5131262;28;20398;-82
2021/11/02 05:10:41;;;;;;;9.30;5.63;;;7.60;99.90;;;;;;5115398;28;20355;-82
2021/11/02 05:47:59;;;;;;;8.80;6.20;;;7.40;99.90;;;;;;5098754;28;20396;-82
2021/11/02 05:56:01;;;;;;;7.93;6.17;;;7.30;99.90;;;;;;5128832;28;20906;-82
2021/11/02 06:03:59;;;;;;;9.40;7.03;;;7.20;99.90;;;;;;5112837;28;20404;-81
2021/11/02 06:06:43;;;;;;;9.03;6.83;;;7.30;99.90;;;;;;5128840;27;20415;-81
2021/11/02 06:09:31;;;;;;;10.23;6.33;;;7.30;99.90;;;;;;5128331;28;20474;-80
2021/11/02 06:28:57;;;;;;;9.37;7.27;;;7.60;99.90;;;;;;5105813;28;20443;-81
2021/11/02 06:31:31;;;;;;;12.27;7.83;;;7.50;99.90;;;;;;5107591;28;20424;-83
2021/11/02 06:34:06;;;;;;;9.27;7.13;;;7.50;99.90;;;;;;5125650;27;20415;-82
2021/11/02 06:36:56;;;;;;;8.10;5.87;;;7.60;99.90;;;;;;5095884;28;20486;-81
2021/11/02 06:45:13;;;;;;;10.70;7.90;;;7.50;99.90;;;;;;5126664;28;20907;-80
2021/11/02 06:47:54;;;;;;;7.50;5.90;;;7.40;99.90;;;;;;5118671;28;20394;-82
2021/11/02 06:51:00;;;;;;;11.43;6.30;;;7.50;99.90;;;;;;5113806;28;20532;-81
2021/11/02 07:15:46;;;;;;;8.07;6.20;;;7.80;99.90;;;;;;5115886;28;20454;-82
2021/11/02 07:18:18;;;;;;;7.07;5.83;;;7.70;99.90;;;;;;5105952;28;20798;-81
2021/11/02 07:20:50;;;;;;;10.23;6.60;;;7.70;99.90;;;;;;5087519;28;20430;-82
2021/11/02 07:23:27;;;;;;;7.20;6.20;;;7.70;99.90;;;;;;5116983;28;20162;-81
2021/11/02 07:29:16;;;;;;;8.30;6.43;;;7.90;99.90;;;;;;5102845;28;20509;-81
2021/11/02 08:46:18;;;;;;;6.97;5.80;;;10.00;99.90;;;;;;5046403;28;20419;-81
2021/11/02 08:48:43;;;;;;;6.00;5.43;;;10.00;99.90;;;;;;5029952;28;20428;-81
2021/11/02 08:51:12;;;;;;;6.07;4.57;;;10.00;99.90;;;;;;5014589;28;20427;-83
2021/11/02 08:53:39;;;;;;;8.90;5.13;;;10.80;99.90;;;;;;5022079;28;20430;-82
2021/11/02 08:56:05;;;;;;;7.50;5.77;;;12.10;99.90;;;;;;5036950;28;20459;-83
2021/11/02 08:58:31;;;;;;;6.03;5.00;;;11.50;99.90;;;;;;5035033;28;20426;-82
2021/11/02 09:00:59;;;;;;;8.67;5.10;;;11.30;99.90;;;;;;5077126;28;20172;-84
2021/11/02 09:03:31;;;;;;;5.00;4.60;;;12.50;99.90;;;;;;5059023;28;20433;-81
2021/11/02 09:06:03;;;;;;;6.23;5.30;;;13.30;99.90;;;;;;5073836;28;20426;-81
2021/11/02 09:08:30;;;;;;;4.20;3.80;;;13.10;99.90;;;;;;5056247;28;20756;-82
2021/11/02 09:11:00;;;;;;;4.40;4.00;;;12.40;99.90;;;;;;5072209;28;20426;-80
2021/11/02 09:13:27;;;;;;;5.53;4.47;;;12.20;99.90;;;;;;5069168;28;20433;-81
2021/11/02 09:16:00;;;;;;;4.70;4.30;;;11.90;99.90;;;;;;5070018;28;20501;-79
2021/11/02 09:18:27;;;;;;;5.87;4.20;;;13.00;99.90;;;;;;5065407;28;20466;-81
2021/11/02 09:20:56;;;;;;;4.57;4.20;;;14.10;99.90;;;;;;5075253;28;20454;-80
2021/11/02 09:23:22;;;;;;;5.93;4.10;;;14.00;99.90;;;;;;5098925;28;20428;-82
2021/11/02 09:25:51;;;;;;;4.70;4.20;;;14.10;99.90;;;;;;5094339;28;20428;-81
2021/11/02 09:28:19;;;;;;;5.30;4.83;;;13.50;99.90;;;;;;5097553;28;20459;-82
2021/11/02 09:30:45;;;;;;;3.57;3.30;;;13.50;99.90;;;;;;5108950;28;20428;-82
2021/11/02 09:33:11;;;;;;;6.90;4.30;;;15.00;99.90;;;;;;5088541;28;20449;-81
2021/11/02 09:35:38;;;;;;;4.23;3.87;;;15.00;99.90;;;;;;5077325;28;20672;-82
2021/11/02 09:38:24;;;;;;;4.60;3.37;;;15.50;99.90;;;;;;5119791;27;20416;-82
2021/11/02 09:41:21;;;;;;;5.50;3.50;;;16.30;99.90;;;;;;5118369;27;20490;-82
2021/11/02 09:44:27;;;;;;;3.47;3.17;;;17.20;99.90;;;;;;5113269;28;20787;-83
2021/11/02 09:47:12;;;;;;;3.07;2.87;;;15.90;99.90;;;;;;5112670;27;20412;-82
2021/11/02 09:50:12;;;;;;;5.40;4.87;;;16.40;99.90;;;;;;5101274;28;20448;-81
2021/11/02 09:53:20;;;;;;;3.07;2.87;;;16.20;99.90;;;;;;5097744;28;20519;-83
2021/11/02 09:56:03;;;;;;;6.27;3.03;;;14.30;99.90;;;;;;5114795;27;20451;-84
2021/11/02 09:59:09;;;;;;;2.57;2.37;;;13.70;99.90;;;;;;5113122;27;20420;-82
2021/11/02 10:02:11;;;;;;;3.20;2.60;;;12.40;99.90;;;;;;5108121;27;20427;-81
2021/11/02 10:05:12;;;;;;;3.70;2.70;;;11.90;99.90;;;;;;5120941;27;20415;-82
2021/11/02 10:08:15;;;;;;;4.60;2.90;;;11.80;99.90;;;;;;5117910;27;20429;-82
2021/11/02 10:11:13;;;;;;;3.20;2.83;;;13.40;99.90;;;;;;5098580;28;20423;-83
2021/11/02 10:14:04;;;;;;;2.13;1.97;;;14.80;99.90;;;;;;5096345;28;20417;-83
2021/11/02 10:17:04;;;;;;;2.00;1.90;;;13.70;99.90;;;;;;5100754;28;20456;-82
2021/11/02 10:20:00;;;;;;;4.50;2.87;;;13.20;99.90;;;;;;5089886;28;20447;-83
2021/11/02 10:22:48;;;;;;;2.83;2.60;;;12.50;99.90;;;;;;5116703;28;20881;-81
2021/11/02 10:25:21;;;;;;;4.20;2.50;;;11.90;99.90;;;;;;5107073;28;20485;-83
2021/11/02 10:28:20;;;;;;;4.90;3.10;;;11.50;99.90;;;;;;5122264;28;20481;-83
2021/11/02 10:30:59;;;;;;;3.33;2.13;;;11.30;99.90;;;;;;5111085;28;20412;-81
2021/11/02 10:33:48;;;;;;;5.60;2.70;;;11.40;99.90;;;;;;5093980;28;21090;-80
2021/11/02 10:36:34;;;;;;;5.63;2.80;;;11.50;99.90;;;;;;5116628;28;20464;-83
2021/11/02 10:39:17;;;;;;;3.10;2.30;;;11.60;99.90;;;;;;5104622;28;20409;-82
2021/11/02 10:42:08;;;;;;;2.87;2.67;;;12.40;99.90;;;;;;5106886;28;20455;-82
2021/11/02 10:44:45;;;;;;;3.10;2.47;;;13.20;99.90;;;;;;5115040;28;20415;-84
2021/11/02 10:47:19;;;;;;;10.80;2.63;;;14.50;99.90;;;;;;5128403;27;20419;-83
2021/11/02 10:50:05;;;;;;;2.70;2.00;;;14.90;99.90;;;;;;5103066;28;20437;-81
2021/11/02 10:52:32;;;;;;;2.20;2.00;;;15.10;99.90;;;;;;5114061;28;20443;-83
2021/11/02 10:55:33;;;;;;;7.60;2.53;;;15.60;99.90;;;;;;5096299;28;20452;-80
2021/11/02 10:58:20;;;;;;;3.70;2.00;;;15.90;99.90;;;;;;5097702;27;20447;-82
2021/11/02 11:00:50;;;;;;;2.23;1.90;;;14.40;99.90;;;;;;5116706;28;20722;-82
2021/11/02 11:03:18;;;;;;;4.73;2.20;;;13.40;99.90;;;;;;5120527;28;20531;-81
2021/11/02 11:05:47;;;;;;;4.10;2.37;;;13.60;99.90;;;;;;5122230;28;20408;-81
2021/11/02 11:08:15;;;;;;;2.67;2.07;;;14.20;99.90;;;;;;5113855;28;20408;-82
2021/11/02 11:10:46;;;;;;;4.97;1.80;;;13.60;99.90;;;;;;5100401;28;20427;-82
2021/11/02 11:13:14;;;;;;;2.10;1.93;;;13.10;99.90;;;;;;5084289;28;20411;-82
2021/11/02 11:15:42;;;;;;;4.43;2.10;;;12.80;99.90;;;;;;5116171;28;20454;-83
2021/11/02 11:18:10;;;;;;;2.60;1.90;;;13.10;99.90;;;;;;5111864;28;20414;-83
2021/11/02 11:20:39;;;;;;;7.53;3.00;;;12.40;99.90;;;;;;5108997;28;20414;-80
2021/11/02 11:23:08;;;;;;;6.50;2.57;;;12.40;99.90;;;;;;5116945;28;20420;-81
2021/11/02 11:25:49;;;;;;;1.70;1.60;;;12.10;99.90;;;;;;5107413;28;20488;-83
2021/11/02 11:28:18;;;;;;;2.03;1.93;;;13.20;99.90;;;;;;5094660;28;20421;-83
2021/11/02 11:30:48;;;;;;;6.80;3.10;;;13.40;99.90;;;;;;5117404;28;20404;-83
2021/11/02 11:33:18;;;;;;;3.30;2.33;;;12.70;99.90;;;;;;5100765;28;20430;-82
2021/11/02 11:35:47;;;;;;;1.93;1.83;;;13.00;99.90;;;;;;5097941;28;20471;-81
2021/11/02 11:38:15;;;;;;;5.00;1.50;;;13.30;99.90;;;;;;5082942;28;20424;-82
2021/11/02 11:40:44;;;;;;;4.07;2.23;;;13.70;99.90;;;;;;5110321;28;20549;-82
2021/11/02 11:43:13;;;;;;;2.80;2.30;;;13.30;99.90;;;;;;5075149;28;20423;-81
2021/11/02 11:45:52;;;;;;;2.10;1.90;;;12.90;99.90;;;;;;5100510;28;20772;-79
2021/11/02 11:48:23;;;;;;;2.00;1.90;;;12.50;99.90;;;;;;5068432;28;20909;-82
2021/11/02 11:50:49;;;;;;;3.30;1.67;;;14.10;99.90;;;;;;5095650;28;20451;-82
2021/11/02 11:53:20;;;;;;;3.43;3.13;;;14.40;99.90;;;;;;5090650;28;20420;-82
2021/11/02 11:56:13;;;;;;;3.17;2.07;;;14.10;99.90;;;;;;5098882;28;20451;-80
2021/11/02 11:58:56;;;;;;;2.57;2.37;;;14.40;99.90;;;;;;5076381;28;20412;-80
2021/11/02 12:01:46;;;;;;;4.10;2.27;;;16.40;99.90;;;;;;5115680;28;20445;-82
2021/11/02 12:04:30;;;;;;;3.00;1.60;;;17.70;99.90;;;;;;5118793;28;20471;-82
2021/11/02 12:10:06;;;;;;;1.73;1.60;;;16.50;99.90;;;;;;5106661;28;20435;-82
2021/11/02 12:12:35;;;;;;;2.27;1.70;;;16.80;99.90;;;;;;5125573;28;20430;-81
2021/11/02 12:15:11;;;;;;;3.20;2.07;;;16.60;99.90;;;;;;5097082;28;20477;-85
2021/11/02 12:17:42;;;;;;;2.93;2.00;;;15.00;99.90;;;;;;5080796;28;20424;-82
2021/11/02 12:20:11;;;;;;;3.07;1.90;;;16.00;99.90;;;;;;5043125;28;20485;-83
2021/11/02 12:22:56;;;;;;;2.40;1.90;;;15.70;99.90;;;;;;5055966;28;20450;-82
2021/11/02 12:25:32;;;;;;;3.40;2.30;;;15.20;99.90;;;;;;5058503;28;20431;-81
2021/11/02 12:27:59;;;;;;;2.27;2.07;;;15.70;99.90;;;;;;5033117;28;20534;-80
2021/11/02 12:30:27;;;;;;;3.30;2.27;;;15.70;99.90;;;;;;5063479;28;20449;-80
2021/11/02 12:32:56;;;;;;;4.40;1.87;;;15.70;99.90;;;;;;5047075;28;20446;-81
2021/11/02 12:35:35;;;;;;;2.57;2.30;;;15.90;99.90;;;;;;5044357;28;20466;-82
2021/11/02 12:38:04;;;;;;;3.23;2.60;;;15.60;99.90;;;;;;5013938;28;20968;-84
2021/11/02 12:40:34;;;;;;;2.00;1.90;;;14.80;99.90;;;;;;5044800;28;20436;-82
2021/11/02 12:43:01;;;;;;;2.60;2.40;;;14.10;99.90;;;;;;5055923;28;20466;-83
2021/11/02 12:45:35;;;;;;;2.60;2.40;;;13.40;99.90;;;;;;5048292;28;20459;-82
2021/11/02 12:48:06;;;;;;;3.33;2.10;;;13.30;99.90;;;;;;5033676;28;20431;-82
2021/11/02 12:50:37;;;;;;;2.23;2.13;;;13.60;99.90;;;;;;5065586;28;20766;-82
2021/11/02 12:53:05;;;;;;;3.03;2.10;;;13.50;99.90;;;;;;5028602;28;20403;-81
2021/11/02 12:55:33;;;;;;;3.20;2.20;;;13.30;99.90;;;;;;5041690;28;21044;-82
2021/11/02 12:58:15;;;;;;;3.93;2.33;;;14.00;99.90;;;;;;4999045;28;20483;-83
2021/11/02 13:00:52;;;;;;;2.07;1.93;;;14.50;99.90;;;;;;5040532;28;20431;-81
2021/11/02 13:03:28;;;;;;;3.47;3.17;;;15.00;99.90;;;;;;5033276;28;20427;-82
2021/11/02 13:05:57;;;;;;;1.97;1.87;;;15.30;99.90;;;;;;5025614;28;20423;-82
2021/11/02 13:08:31;;;;;;;2.93;2.80;;;15.50;99.90;;;;;;4992444;28;20427;-81
2021/11/02 13:11:12;;;;;;;3.93;1.87;;;15.10;99.90;;;;;;5022789;28;20419;-83
2021/11/02 13:13:54;;;;;;;1.83;1.73;;;15.20;99.90;;;;;;5039225;28;20435;-81
2021/11/02 13:16:21;;;;;;;2.23;2.00;;;13.80;99.90;;;;;;5015282;28;20487;-82
2021/11/02 13:18:47;;;;;;;3.20;1.67;;;13.50;99.90;;;;;;5012086;28;20435;-80
2021/11/02 13:21:34;;;;;;;2.87;2.23;;;13.30;99.90;;;;;;5035422;28;20451;-81
2021/11/02 13:24:11;;;;;;;3.60;1.83;;;13.80;99.90;;;;;;5055221;28;20421;-82
2021/11/02 13:26:47;;;;;;;2.27;1.50;;;13.40;99.90;;;;;;5083256;28;20456;-82
2021/11/02 13:29:17;;;;;;;1.50;1.40;;;13.10;99.90;;;;;;5099017;28;20420;-81
2021/11/02 13:31:46;;;;;;;2.43;1.60;;;13.00;99.90;;;;;;5097409;28;20761;-81
2021/11/02 13:34:17;;;;;;;1.40;1.30;;;13.10;99.90;;;;;;5070619;28;20429;-82
2021/11/02 13:36:58;;;;;;;2.07;1.80;;;13.10;99.90;;;;;;5068551;28;20463;-81
2021/11/02 13:42:47;;;;;;;5.87;1.73;;;13.20;99.90;;;;;;5095432;28;20606;-81
2021/11/02 13:45:16;;;;;;;2.13;1.50;;;13.10;99.90;;;;;;5077541;28;20493;-83
2021/11/02 13:47:43;;;;;;;3.07;1.90;;;12.80;99.90;;;;;;5103013;28;20442;-81
2021/11/02 13:50:10;;;;;;;1.67;1.57;;;12.60;99.90;;;;;;5095805;28;20436;-80
2021/11/02 13:52:36;;;;;;;3.80;2.23;;;13.00;99.90;;;;;;5079744;28;20412;-81
2021/11/02 13:55:03;;;;;;;6.23;2.30;;;13.20;99.90;;;;;;5120073;28;20464;-81
2021/11/02 13:57:29;;;;;;;4.00;2.30;;;13.20;99.90;;;;;;5092918;28;20451;-81
2021/11/02 13:59:55;;;;;;;2.47;2.10;;;13.40;99.90;;;;;;5093633;28;20484;-82
2021/11/02 14:02:23;;;;;;;9.23;2.30;;;13.40;99.90;;;;;;5110419;28;20413;-82
2021/11/02 14:04:51;;;;;;;4.97;1.77;;;13.20;99.90;;;;;;5092269;28;20273;-82
2021/11/02 14:07:30;;;;;;;1.97;1.87;;;12.70;99.90;;;;;;5104942;28;20420;-80
2021/11/02 14:10:10;;;;;;;1.27;1.17;;;12.30;99.90;;;;;;5086830;28;20421;-81
2021/11/02 14:12:55;;;;;;;1.53;1.23;;;12.10;99.90;;;;;;5100129;28;20860;-82
2021/11/02 14:15:35;;;;;;;1.57;1.47;;;12.10;99.90;;;;;;5094166;28;20452;-81
2021/11/02 14:18:10;;;;;;;1.30;1.20;;;12.10;99.90;;;;;;5075377;28;20408;-82
2021/11/02 14:20:40;;;;;;;2.10;2.00;;;12.00;99.90;;;;;;5098066;28;20416;-80
2021/11/02 14:23:09;;;;;;;2.30;1.10;;;11.40;99.90;;;;;;5115659;28;20432;-81
2021/11/02 14:25:38;;;;;;;1.13;1.03;;;11.40;99.90;;;;;;5099897;28;20436;-82
2021/11/02 14:28:32;;;;;;;1.33;1.23;;;11.30;99.90;;;;;;5094391;28;20960;-82
2021/11/02 14:30:58;;;;;;;1.63;1.20;;;11.10;99.90;;;;;;5080675;28;20438;-81
2021/11/02 14:33:44;;;;;;;2.13;1.00;;;11.00;99.90;;;;;;5103794;28;20515;-81
2021/11/02 14:36:11;;;;;;;1.20;1.10;;;10.90;99.90;;;;;;5079640;28;20238;-81
2021/11/02 14:38:46;;;;;;;2.90;1.10;;;11.00;99.90;;;;;;5073227;28;20437;-81
2021/11/02 14:41:33;;;;;;;1.37;1.27;;;11.10;99.90;;;;;;5092873;28;20418;-81
2021/11/02 14:44:24;;;;;;;2.43;1.40;;;10.90;99.90;;;;;;5054822;28;20445;-81
2021/11/02 14:46:56;;;;;;;4.27;2.70;;;10.90;99.90;;;;;;5075485;28;20552;-81
2021/11/02 14:49:38;;;;;;;1.90;1.60;;;10.90;99.90;;;;;;5098862;28;20447;-84
2021/11/02 14:52:06;;;;;;;5.27;1.43;;;10.40;99.90;;;;;;5082398;28;20429;-83
2021/11/02 14:54:43;;;;;;;3.03;1.53;;;10.50;99.90;;;;;;5069215;28;20432;-82
2021/11/02 14:57:34;;;;;;;2.27;1.90;;;10.70;99.90;;;;;;5103092;28;20439;-82
2021/11/02 15:00:03;;;;;;;2.20;1.90;;;10.50;99.90;;;;;;5094177;28;20424;-83
2021/11/02 15:02:44;;;;;;;1.80;1.70;;;10.50;99.90;;;;;;5105906;28;20417;-83
2021/11/02 15:05:13;;;;;;;1.87;1.70;;;10.70;99.90;;;;;;5104253;28;20466;-82
2021/11/02 15:07:44;;;;;;;1.40;1.30;;;10.30;99.90;;;;;;5113690;28;20514;-81
2021/11/02 15:10:13;;;;;;;2.63;1.60;;;10.40;99.90;;;;;;5108738;28;20421;-81
2021/11/02 15:12:43;;;;;;;1.63;1.20;;;10.50;99.90;;;;;;5102178;28;20849;-82
2021/11/02 15:15:09;;;;;;;1.30;1.20;;;10.20;99.90;;;;;;5121780;28;20458;-81
2021/11/02 15:17:37;;;;;;;4.50;1.60;;;10.30;99.90;;;;;;5109704;28;20421;-82
2021/11/02 15:20:05;;;;;;;1.73;1.40;;;10.10;99.90;;;;;;5123920;28;20393;-82
2021/11/02 15:22:31;;;;;;;1.40;1.30;;;9.90;99.90;;;;;;5116282;28;20418;-82
2021/11/02 15:25:00;;;;;;;4.80;1.50;;;9.80;99.90;;;;;;5092537;28;20434;-82
2021/11/02 15:27:30;;;;;;;2.60;1.40;;;9.70;99.90;;;;;;5115531;28;20428;-81
2021/11/02 15:30:00;;;;;;;1.30;1.20;;;10.00;99.90;;;;;;5058542;28;20459;-81
2021/11/02 15:32:34;;;;;;;3.10;1.53;;;10.10;99.90;;;;;;5112169;28;20454;-82
2021/11/02 15:35:04;;;;;;;3.00;1.77;;;10.00;99.90;;;;;;5123954;28;20538;-83
2021/11/02 15:37:39;;;;;;;1.30;1.20;;;10.00;99.90;;;;;;5118447;28;20423;-82
2021/11/02 15:40:14;;;;;;;1.60;1.50;;;10.00;99.90;;;;;;5146799;27;20407;-82
2021/11/02 15:42:43;;;;;;;2.57;1.90;;;9.90;99.90;;;;;;5044140;28;20423;-81
2021/11/02 15:45:12;;;;;;;2.60;1.60;;;9.80;99.90;;;;;;5032425;28;20431;-84
2021/11/02 15:47:49;;;;;;;5.57;1.90;;;9.80;99.90;;;;;;5069773;28;20463;-82
2021/11/02 15:50:19;;;;;;;1.40;1.30;;;9.80;99.90;;;;;;5045083;28;20411;-82
2021/11/02 15:52:46;;;;;;;1.40;1.30;;;9.70;99.90;;;;;;5037872;28;20442;-83
2021/11/02 15:55:16;;;;;;;1.80;1.27;;;9.70;99.90;;;;;;5065910;28;20472;-83
2021/11/02 15:57:48;;;;;;;1.60;1.50;;;9.80;99.90;;;;;;5032812;28;20494;-82
2021/11/02 16:00:16;;;;;;;2.47;1.60;;;9.60;99.90;;;;;;5065950;28;20438;-83
2021/11/02 16:02:45;;;;;;;2.27;1.20;;;9.70;99.90;;;;;;5040803;28;20801;-83
2021/11/02 16:05:18;;;;;;;1.87;1.70;;;9.60;99.90;;;;;;5047975;28;20725;-83
2021/11/02 16:07:44;;;;;;;1.30;1.20;;;9.50;99.90;;;;;;5032147;28;20545;-83
2021/11/02 16:10:11;;;;;;;1.90;1.80;;;9.50;99.90;;;;;;5048027;28;20425;-83
2021/11/02 16:12:40;;;;;;;2.20;2.00;;;9.70;99.90;;;;;;5067538;28;20425;-82
2021/11/02 16:15:17;;;;;;;1.67;1.57;;;9.80;99.90;;;;;;5107382;28;20462;-84
2021/11/02 16:17:49;;;;;;;2.47;2.27;;;10.00;99.90;;;;;;5110067;28;20415;-83
2021/11/02 16:20:26;;;;;;;5.40;2.63;;;10.10;99.90;;;;;;5073015;28;20729;-82
2021/11/02 16:23:03;;;;;;;2.37;2.10;;;10.10;99.90;;;;;;5108901;28;20442;-82
2021/11/02 16:25:37;;;;;;;3.00;2.70;;;9.70;99.90;;;;;;5127956;28;20394;-84
2021/11/02 16:28:27;;;;;;;1.80;1.70;;;9.40;99.90;;;;;;5113395;28;20394;-83
2021/11/02 16:30:59;;;;;;;1.73;1.63;;;9.40;99.90;;;;;;5111273;28;20396;-82
2021/11/02 16:33:35;;;;;;;2.40;1.80;;;9.40;99.90;;;;;;5107700;28;20467;-82
2021/11/02 16:36:27;;;;;;;2.27;2.07;;;9.50;99.90;;;;;;5014150;28;20506;-82
2021/11/02 16:38:58;;;;;;;2.37;2.17;;;9.50;99.90;;;;;;5026179;28;20446;-81
2021/11/02 16:41:40;;;;;;;2.53;2.33;;;9.40;99.90;;;;;;5027665;28;20411;-82
2021/11/02 16:44:11;;;;;;;2.60;2.13;;;9.40;99.90;;;;;;5041940;28;20537;-82
2021/11/02 16:46:39;;;;;;;3.23;2.93;;;9.30;99.90;;;;;;5011134;28;20419;-83
2021/11/02 16:49:13;;;;;;;3.80;3.00;;;9.30;99.90;;;;;;5044508;28;20518;-82
2021/11/02 16:52:05;;;;;;;10.50;2.63;;;9.40;99.90;;;;;;5046537;28;20550;-83
2021/11/02 16:54:35;;;;;;;2.60;2.40;;;9.40;99.90;;;;;;5047599;28;20522;-81
2021/11/02 16:57:24;;;;;;;4.33;2.30;;;9.40;99.90;;;;;;5028410;28;20968;-81
2021/11/02 16:59:54;;;;;;;2.47;2.27;;;9.30;99.90;;;;;;5031524;28;20423;-82
2021/11/02 17:02:25;;;;;;;2.80;2.40;;;9.20;99.90;;;;;;5031133;28;20478;-82
2021/11/02 17:05:06;;;;;;;1.80;1.60;;;9.30;99.90;;;;;;5045658;28;20396;-82
2021/11/02 17:07:37;;;;;;;2.47;2.27;;;9.40;99.90;;;;;;5091793;28;20495;-81
2021/11/02 17:10:39;;;;;;;2.53;1.97;;;9.30;99.90;;;;;;5096443;28;20410;-81
2021/11/02 17:13:13;;;;;;;2.87;2.67;;;9.30;99.90;;;;;;5089825;28;20896;-81
2021/11/02 17:15:55;;;;;;;5.93;2.60;;;9.30;99.90;;;;;;5046205;28;20425;-82
2021/11/02 17:18:39;;;;;;;2.17;1.80;;;9.20;99.90;;;;;;5096368;28;20412;-83
2021/11/02 17:21:10;;;;;;;3.93;2.63;;;9.20;99.90;;;;;;5109137;28;20425;-83
2021/11/02 17:23:38;;;;;;;3.20;2.37;;;9.20;99.90;;;;;;5100525;28;20481;-82
2021/11/02 17:26:06;;;;;;;2.67;2.00;;;9.10;99.90;;;;;;5087748;28;20419;-81
2021/11/02 17:28:34;;;;;;;2.70;2.30;;;9.00;99.90;;;;;;5106998;28;20417;-81
2021/11/02 17:31:06;;;;;;;3.70;3.30;;;9.10;99.90;;;;;;5085128;28;20449;-83
2021/11/02 17:33:33;;;;;;;4.23;2.80;;;9.10;99.90;;;;;;5084759;28;20438;-81
2021/11/02 17:36:05;;;;;;;4.10;2.73;;;9.10;99.90;;;;;;5099387;28;20468;-82
2021/11/02 17:38:32;;;;;;;4.80;3.00;;;9.30;99.90;;;;;;5097440;28;20425;-82
2021/11/02 17:41:04;;;;;;;3.10;2.90;;;9.20;99.90;;;;;;5109604;28;20455;-82
2021/11/02 17:43:31;;;;;;;3.23;3.03;;;9.30;99.90;;;;;;5106752;28;20389;-82